sensor_id;sensor_type;location;lat;lon;timestamp;temperature;humidity
67862;DHT22;54665;51.462;6.698;2022-09-09T00:02:32;14.32;95.65
67862;DHT22;54665;51.462;6.698;2022-09-09T00:05:14;14.29;95.71
67862;DHT22;54665;51.462;6.698;2022-09-09T00:07:51;14.23;95.71
67862;DHT22;54665;51.462;6.698;2022-09-09T00:15:37;14.09;95.81
67862;DHT22;54665;51.462;6.698;2022-09-09T00:21:04;13.98;95.93
67862;DHT22;54665;51.462;6.698;2022-09-09T00:23:39;14.01;96.02
67862;DHT22;54665;51.462;6.698;2022-09-09T00:28:39;14.05;96.32
67862;DHT22;54665;51.462;6.698;2022-09-09T00:31:20;14.09;96.38
67862;DHT22;54665;51.462;6.698;2022-09-09T00:33:47;14.11;96.46
67862;DHT22;54665;51.462;6.698;2022-09-09T00:36:17;14.04;96.43
67862;DHT22;54665;51.462;6.698;2022-09-09T00:38:49;14.02;96.39
67862;DHT22;54665;51.462;6.698;2022-09-09T00:41:19;14.06;96.49
67862;DHT22;54665;51.462;6.698;2022-09-09T00:44:00;14.15;96.51
67862;DHT22;54665;51.462;6.698;2022-09-09T00:46:40;14.21;96.55
67862;DHT22;54665;51.462;6.698;2022-09-09T00:57:35;14.05;96.61
67862;DHT22;54665;51.462;6.698;2022-09-09T01:00:25;14.08;96.61
67862;DHT22;54665;51.462;6.698;2022-09-09T01:14:27;13.77;96.74
67862;DHT22;54665;51.462;6.698;2022-09-09T01:17:03;13.70;96.81
67862;DHT22;54665;51.462;6.698;2022-09-09T01:22:25;13.65;96.98
67862;DHT22;54665;51.462;6.698;2022-09-09T01:27:58;13.62;97.05
67862;DHT22;54665;51.462;6.698;2022-09-09T01:30:25;13.55;97.12
67862;DHT22;54665;51.462;6.698;2022-09-09T01:32:57;13.50;97.12
67862;DHT22;54665;51.462;6.698;2022-09-09T01:35:39;13.51;97.23
67862;DHT22;54665;51.462;6.698;2022-09-09T01:38:07;13.50;97.30
67862;DHT22;54665;51.462;6.698;2022-09-09T01:40:33;13.48;97.36
67862;DHT22;54665;51.462;6.698;2022-09-09T01:42:59;13.50;97.43
67862;DHT22;54665;51.462;6.698;2022-09-09T01:45:25;13.54;97.42
67862;DHT22;54665;51.462;6.698;2022-09-09T01:47:52;13.60;97.39
67862;DHT22;54665;51.462;6.698;2022-09-09T01:50:26;13.68;97.40
67862;DHT22;54665;51.462;6.698;2022-09-09T01:52:58;13.79;97.39
67862;DHT22;54665;51.462;6.698;2022-09-09T01:55:30;13.94;97.43
67862;DHT22;54665;51.462;6.698;2022-09-09T01:58:17;14.05;97.42
67862;DHT22;54665;51.462;6.698;2022-09-09T02:01:00;14.18;97.43
67862;DHT22;54665;51.462;6.698;2022-09-09T02:03:29;14.19;97.40
67862;DHT22;54665;51.462;6.698;2022-09-09T02:08:42;14.05;97.35
67862;DHT22;54665;51.462;6.698;2022-09-09T02:11:14;13.95;97.34
67862;DHT22;54665;51.462;6.698;2022-09-09T02:13:54;13.98;97.39
67862;DHT22;54665;51.462;6.698;2022-09-09T02:18:59;14.09;97.47
67862;DHT22;54665;51.462;6.698;2022-09-09T02:21:36;14.13;97.47
67862;DHT22;54665;51.462;6.698;2022-09-09T02:24:05;14.13;97.44
67862;DHT22;54665;51.462;6.698;2022-09-09T02:26:39;14.19;97.47
67862;DHT22;54665;51.462;6.698;2022-09-09T02:29:15;14.16;97.41
67862;DHT22;54665;51.462;6.698;2022-09-09T02:31:42;14.13;97.47
67862;DHT22;54665;51.462;6.698;2022-09-09T02:34:15;14.09;97.45
67862;DHT22;54665;51.462;6.698;2022-09-09T02:36:44;14.06;97.39
67862;DHT22;54665;51.462;6.698;2022-09-09T02:39:11;13.98;97.36
67862;DHT22;54665;51.462;6.698;2022-09-09T02:41:41;13.91;97.41
67862;DHT22;54665;51.462;6.698;2022-09-09T02:44:13;13.85;97.40
67862;DHT22;54665;51.462;6.698;2022-09-09T02:47:02;13.81;97.47
67862;DHT22;54665;51.462;6.698;2022-09-09T02:52:26;13.77;97.46
67862;DHT22;54665;51.462;6.698;2022-09-09T02:54:59;13.72;97.43
67862;DHT22;54665;51.462;6.698;2022-09-09T02:57:30;13.65;97.44
67862;DHT22;54665;51.462;6.698;2022-09-09T02:59:57;13.68;97.48
67862;DHT22;54665;51.462;6.698;2022-09-09T03:02:23;13.71;97.51
67862;DHT22;54665;51.462;6.698;2022-09-09T03:04:54;13.71;97.57
67862;DHT22;54665;51.462;6.698;2022-09-09T03:07:20;13.68;97.54
67862;DHT22;54665;51.462;6.698;2022-09-09T03:09:47;13.62;97.54
67862;DHT22;54665;51.462;6.698;2022-09-09T03:12:13;13.65;97.56
67862;DHT22;54665;51.462;6.698;2022-09-09T03:14:39;13.71;97.63
67862;DHT22;54665;51.462;6.698;2022-09-09T03:17:06;13.77;97.68
67862;DHT22;54665;51.462;6.698;2022-09-09T03:19:36;13.82;97.62
67862;DHT22;54665;51.462;6.698;2022-09-09T03:22:03;13.92;97.64
67862;DHT22;54665;51.462;6.698;2022-09-09T03:24:31;14.00;97.62
67862;DHT22;54665;51.462;6.698;2022-09-09T03:26:57;14.04;97.62
67862;DHT22;54665;51.462;6.698;2022-09-09T03:29:23;14.12;97.65
67862;DHT22;54665;51.462;6.698;2022-09-09T03:31:50;14.16;97.63
67862;DHT22;54665;51.462;6.698;2022-09-09T03:34:17;14.19;97.57
67862;DHT22;54665;51.462;6.698;2022-09-09T03:36:42;14.21;97.58
67862;DHT22;54665;51.462;6.698;2022-09-09T03:39:08;14.21;97.52
67862;DHT22;54665;51.462;6.698;2022-09-09T03:41:35;14.19;97.49
67862;DHT22;54665;51.462;6.698;2022-09-09T03:44:03;14.12;97.45
67862;DHT22;54665;51.462;6.698;2022-09-09T03:46:33;14.09;97.47
67862;DHT22;54665;51.462;6.698;2022-09-09T03:48:59;14.05;97.43
67862;DHT22;54665;51.462;6.698;2022-09-09T03:51:25;14.01;97.45
67862;DHT22;54665;51.462;6.698;2022-09-09T03:53:50;14.01;97.46
67862;DHT22;54665;51.462;6.698;2022-09-09T03:56:16;13.95;97.46
67862;DHT22;54665;51.462;6.698;2022-09-09T03:58:41;14.00;97.52
67862;DHT22;54665;51.462;6.698;2022-09-09T04:01:12;14.05;97.50
67862;DHT22;54665;51.462;6.698;2022-09-09T04:03:43;14.11;97.53
67862;DHT22;54665;51.462;6.698;2022-09-09T04:06:10;14.15;97.54
67862;DHT22;54665;51.462;6.698;2022-09-09T04:08:37;14.23;97.50
67862;DHT22;54665;51.462;6.698;2022-09-09T04:11:03;14.26;97.51
67862;DHT22;54665;51.462;6.698;2022-09-09T04:13:33;14.34;97.44
67862;DHT22;54665;51.462;6.698;2022-09-09T04:16:01;14.36;97.41
67862;DHT22;54665;51.462;6.698;2022-09-09T04:18:28;14.36;97.38
67862;DHT22;54665;51.462;6.698;2022-09-09T04:20:54;14.39;97.37
67862;DHT22;54665;51.462;6.698;2022-09-09T04:23:26;14.47;97.27
67862;DHT22;54665;51.462;6.698;2022-09-09T04:25:55;14.49;97.18
67862;DHT22;54665;51.462;6.698;2022-09-09T04:28:23;14.50;97.12
67862;DHT22;54665;51.462;6.698;2022-09-09T04:30:50;14.55;97.09
67862;DHT22;54665;51.462;6.698;2022-09-09T04:33:16;14.55;97.04
67862;DHT22;54665;51.462;6.698;2022-09-09T04:35:49;14.56;96.99
67862;DHT22;54665;51.462;6.698;2022-09-09T04:38:17;14.56;96.94
67862;DHT22;54665;51.462;6.698;2022-09-09T04:40:46;14.57;96.82
67862;DHT22;54665;51.462;6.698;2022-09-09T04:43:12;14.57;96.83
67862;DHT22;54665;51.462;6.698;2022-09-09T04:45:43;14.60;96.77
67862;DHT22;54665;51.462;6.698;2022-09-09T04:48:09;14.60;96.68
67862;DHT22;54665;51.462;6.698;2022-09-09T04:50:35;14.57;96.70
67862;DHT22;54665;51.462;6.698;2022-09-09T04:53:02;14.62;96.65
67862;DHT22;54665;51.462;6.698;2022-09-09T04:55:29;14.62;96.59
67862;DHT22;54665;51.462;6.698;2022-09-09T04:57:55;14.62;96.60
67862;DHT22;54665;51.462;6.698;2022-09-09T05:00:24;14.63;96.56
67862;DHT22;54665;51.462;6.698;2022-09-09T05:02:49;14.63;96.51
67862;DHT22;54665;51.462;6.698;2022-09-09T05:05:15;14.63;96.50
67862;DHT22;54665;51.462;6.698;2022-09-09T05:07:42;14.63;96.52
67862;DHT22;54665;51.462;6.698;2022-09-09T05:10:08;14.64;96.51
67862;DHT22;54665;51.462;6.698;2022-09-09T05:12:35;14.64;96.49
67862;DHT22;54665;51.462;6.698;2022-09-09T05:15:01;14.66;96.48
67862;DHT22;54665;51.462;6.698;2022-09-09T05:17:27;14.63;96.45
67862;DHT22;54665;51.462;6.698;2022-09-09T05:19:52;14.59;96.41
67862;DHT22;54665;51.462;6.698;2022-09-09T05:22:21;14.56;96.39
67862;DHT22;54665;51.462;6.698;2022-09-09T05:24:49;14.52;96.29
67862;DHT22;54665;51.462;6.698;2022-09-09T05:27:19;14.46;96.26
67862;DHT22;54665;51.462;6.698;2022-09-09T05:29:48;14.42;96.25
67862;DHT22;54665;51.462;6.698;2022-09-09T05:32:14;14.39;96.25
67862;DHT22;54665;51.462;6.698;2022-09-09T05:34:43;14.40;96.28
67862;DHT22;54665;51.462;6.698;2022-09-09T05:37:09;14.40;96.26
67862;DHT22;54665;51.462;6.698;2022-09-09T05:39:35;14.47;96.24
67862;DHT22;54665;51.462;6.698;2022-09-09T05:42:04;14.47;96.19
67862;DHT22;54665;51.462;6.698;2022-09-09T05:44:31;14.46;96.05
67862;DHT22;54665;51.462;6.698;2022-09-09T05:46:58;14.49;96.01
67862;DHT22;54665;51.462;6.698;2022-09-09T05:49:24;14.49;96.02
67862;DHT22;54665;51.462;6.698;2022-09-09T05:51:49;14.59;95.99
67862;DHT22;54665;51.462;6.698;2022-09-09T05:54:17;14.69;95.91
67862;DHT22;54665;51.462;6.698;2022-09-09T05:56:46;14.80;95.76
67862;DHT22;54665;51.462;6.698;2022-09-09T05:59:12;14.83;95.57
67862;DHT22;54665;51.462;6.698;2022-09-09T06:01:39;14.87;95.44
67862;DHT22;54665;51.462;6.698;2022-09-09T06:04:06;14.95;95.25
67862;DHT22;54665;51.462;6.698;2022-09-09T06:06:35;15.01;95.05
67862;DHT22;54665;51.462;6.698;2022-09-09T06:09:03;15.14;94.85
67862;DHT22;54665;51.462;6.698;2022-09-09T06:11:35;15.17;94.73
67862;DHT22;54665;51.462;6.698;2022-09-09T06:14:02;15.23;93.88
67862;DHT22;54665;51.462;6.698;2022-09-09T06:16:30;15.24;93.59
67862;DHT22;54665;51.462;6.698;2022-09-09T06:18:58;15.23;93.46
67862;DHT22;54665;51.462;6.698;2022-09-09T06:21:30;15.15;93.51
67862;DHT22;54665;51.462;6.698;2022-09-09T06:23:58;15.12;93.45
67862;DHT22;54665;51.462;6.698;2022-09-09T06:26:32;15.25;93.03
67862;DHT22;54665;51.462;6.698;2022-09-09T06:29:02;15.45;92.81
67862;DHT22;54665;51.462;6.698;2022-09-09T06:31:30;15.67;92.60
67862;DHT22;54665;51.462;6.698;2022-09-09T06:34:00;15.87;91.71
67862;DHT22;54665;51.462;6.698;2022-09-09T06:36:30;15.99;91.03
67862;DHT22;54665;51.462;6.698;2022-09-09T06:38:57;16.00;91.08
67862;DHT22;54665;51.462;6.698;2022-09-09T06:41:25;15.99;90.43
67862;DHT22;54665;51.462;6.698;2022-09-09T06:43:52;16.00;90.58
67862;DHT22;54665;51.462;6.698;2022-09-09T06:46:23;15.87;90.22
67862;DHT22;54665;51.462;6.698;2022-09-09T06:48:53;15.86;89.94
67862;DHT22;54665;51.462;6.698;2022-09-09T06:51:22;15.93;90.01
67862;DHT22;54665;51.462;6.698;2022-09-09T06:53:51;16.10;90.15
67862;DHT22;54665;51.462;6.698;2022-09-09T06:56:28;16.37;89.33
67862;DHT22;54665;51.462;6.698;2022-09-09T06:58:57;16.60;88.54
67862;DHT22;54665;51.462;6.698;2022-09-09T07:01:36;16.79;87.73
67862;DHT22;54665;51.462;6.698;2022-09-09T07:04:05;16.91;86.74
67862;DHT22;54665;51.462;6.698;2022-09-09T07:06:36;16.99;85.45
67862;DHT22;54665;51.462;6.698;2022-09-09T07:09:05;17.08;85.29
67862;DHT22;54665;51.462;6.698;2022-09-09T07:11:42;18.00;83.08
67862;DHT22;54665;51.462;6.698;2022-09-09T07:14:10;19.10;77.02
67862;DHT22;54665;51.462;6.698;2022-09-09T07:16:40;19.51;74.78
67862;DHT22;54665;51.462;6.698;2022-09-09T07:19:08;18.65;76.49
67862;DHT22;54665;51.462;6.698;2022-09-09T07:21:33;18.44;77.93
67862;DHT22;54665;51.462;6.698;2022-09-09T07:24:00;18.07;78.49
67862;DHT22;54665;51.462;6.698;2022-09-09T07:26:28;17.67;79.66
67862;DHT22;54665;51.462;6.698;2022-09-09T07:28:55;17.76;78.67
67862;DHT22;54665;51.462;6.698;2022-09-09T07:31:28;18.04;77.58
67862;DHT22;54665;51.462;6.698;2022-09-09T07:33:56;19.11;74.82
67862;DHT22;54665;51.462;6.698;2022-09-09T07:36:40;19.19;74.05
67862;DHT22;54665;51.462;6.698;2022-09-09T07:39:11;19.34;73.79
67862;DHT22;54665;51.462;6.698;2022-09-09T07:41:40;19.04;75.13
67862;DHT22;54665;51.462;6.698;2022-09-09T07:44:09;18.90;74.59
67862;DHT22;54665;51.462;6.698;2022-09-09T07:46:36;19.06;73.52
67862;DHT22;54665;51.462;6.698;2022-09-09T07:49:06;18.99;74.56
67862;DHT22;54665;51.462;6.698;2022-09-09T07:51:36;18.90;73.74
67862;DHT22;54665;51.462;6.698;2022-09-09T07:54:07;19.04;73.75
67862;DHT22;54665;51.462;6.698;2022-09-09T07:56:33;19.68;70.21
67862;DHT22;54665;51.462;6.698;2022-09-09T07:58:59;20.32;65.21
67862;DHT22;54665;51.462;6.698;2022-09-09T08:01:30;20.67;65.48
67862;DHT22;54665;51.462;6.698;2022-09-09T08:04:01;20.79;63.34
67862;DHT22;54665;51.462;6.698;2022-09-09T08:06:32;19.81;67.15
67862;DHT22;54665;51.462;6.698;2022-09-09T08:09:02;19.47;69.16
67862;DHT22;54665;51.462;6.698;2022-09-09T08:11:30;19.32;69.79
67862;DHT22;54665;51.462;6.698;2022-09-09T08:13:56;19.81;68.57
67862;DHT22;54665;51.462;6.698;2022-09-09T08:16:24;19.74;67.57
67862;DHT22;54665;51.462;6.698;2022-09-09T08:18:51;19.40;68.12
67862;DHT22;54665;51.462;6.698;2022-09-09T08:21:23;19.10;67.58
67862;DHT22;54665;51.462;6.698;2022-09-09T08:23:51;18.76;70.38
67862;DHT22;54665;51.462;6.698;2022-09-09T08:26:20;18.55;71.22
67862;DHT22;54665;51.462;6.698;2022-09-09T08:28:51;18.82;70.51
67862;DHT22;54665;51.462;6.698;2022-09-09T08:31:26;20.05;67.57
67862;DHT22;54665;51.462;6.698;2022-09-09T08:33:54;21.62;63.02
67862;DHT22;54665;51.462;6.698;2022-09-09T08:36:23;22.51;59.64
67862;DHT22;54665;51.462;6.698;2022-09-09T08:38:53;23.04;59.81
67862;DHT22;54665;51.462;6.698;2022-09-09T08:44:00;23.25;58.42
67862;DHT22;54665;51.462;6.698;2022-09-09T08:47:01;22.79;59.77
67862;DHT22;54665;51.462;6.698;2022-09-09T08:49:52;22.09;60.89
67862;DHT22;54665;51.462;6.698;2022-09-09T08:52:30;21.25;63.05
67862;DHT22;54665;51.462;6.698;2022-09-09T08:55:03;20.57;63.76
67862;DHT22;54665;51.462;6.698;2022-09-09T08:57:30;20.29;65.37
67862;DHT22;54665;51.462;6.698;2022-09-09T08:59:57;20.20;65.64
67862;DHT22;54665;51.462;6.698;2022-09-09T09:05:28;19.47;65.26
67862;DHT22;54665;51.462;6.698;2022-09-09T09:10:48;19.79;67.38
67862;DHT22;54665;51.462;6.698;2022-09-09T09:15:55;20.02;65.82
67862;DHT22;54665;51.462;6.698;2022-09-09T09:18:23;20.04;66.25
67862;DHT22;54665;51.462;6.698;2022-09-09T09:23:56;19.68;66.58
67862;DHT22;54665;51.462;6.698;2022-09-09T09:26:28;19.61;66.46
67862;DHT22;54665;51.462;6.698;2022-09-09T09:28:56;19.35;66.77
67862;DHT22;54665;51.462;6.698;2022-09-09T09:31:22;19.26;66.84
67862;DHT22;54665;51.462;6.698;2022-09-09T09:33:54;19.37;66.50
67862;DHT22;54665;51.462;6.698;2022-09-09T09:36:32;19.35;66.84
67862;DHT22;54665;51.462;6.698;2022-09-09T09:39:01;19.21;66.91
67862;DHT22;54665;51.462;6.698;2022-09-09T09:43:58;19.10;67.05
67862;DHT22;54665;51.462;6.698;2022-09-09T09:46:24;19.26;66.91
67862;DHT22;54665;51.462;6.698;2022-09-09T09:48:58;19.57;66.34
67862;DHT22;54665;51.462;6.698;2022-09-09T09:51:27;20.40;63.90
67862;DHT22;54665;51.462;6.698;2022-09-09T09:54:05;21.42;59.59
67862;DHT22;54665;51.462;6.698;2022-09-09T09:56:35;22.29;57.84
67862;DHT22;54665;51.462;6.698;2022-09-09T09:59:03;23.30;56.32
67862;DHT22;54665;51.462;6.698;2022-09-09T10:01:34;23.88;53.84
67862;DHT22;54665;51.462;6.698;2022-09-09T10:04:22;23.81;52.43
67862;DHT22;54665;51.462;6.698;2022-09-09T10:06:50;23.46;53.70
67862;DHT22;54665;51.462;6.698;2022-09-09T10:09:29;23.30;53.60
67862;DHT22;54665;51.462;6.698;2022-09-09T10:12:47;22.69;54.96
67862;DHT22;54665;51.462;6.698;2022-09-09T10:23:38;21.61;58.78
67862;DHT22;54665;51.462;6.698;2022-09-09T10:26:38;21.24;61.08
67862;DHT22;54665;51.462;6.698;2022-09-09T10:40:33;19.79;63.18
67862;DHT22;54665;51.462;6.698;2022-09-09T10:43:09;19.70;63.66
67862;DHT22;54665;51.462;6.698;2022-09-09T10:45:44;19.64;64.04
67862;DHT22;54665;51.462;6.698;2022-09-09T10:48:31;19.61;63.94
67862;DHT22;54665;51.462;6.698;2022-09-09T10:51:06;19.60;64.36
67862;DHT22;54665;51.462;6.698;2022-09-09T10:54:03;19.72;62.92
67862;DHT22;54665;51.462;6.698;2022-09-09T10:56:26;20.16;62.35
67862;DHT22;54665;51.462;6.698;2022-09-09T11:01:25;21.22;59.75
67862;DHT22;54665;51.462;6.698;2022-09-09T11:04:01;21.67;59.25
67862;DHT22;54665;51.462;6.698;2022-09-09T11:06:32;21.96;58.42
67862;DHT22;54665;51.462;6.698;2022-09-09T11:09:02;22.00;57.84
67862;DHT22;54665;51.462;6.698;2022-09-09T11:11:39;21.76;59.00
67862;DHT22;54665;51.462;6.698;2022-09-09T11:14:12;21.20;60.74
67862;DHT22;54665;51.462;6.698;2022-09-09T11:16:47;20.81;60.22
67862;DHT22;54665;51.462;6.698;2022-09-09T11:19:30;20.64;60.91
67862;DHT22;54665;51.462;6.698;2022-09-09T11:22:01;20.69;61.58
67862;DHT22;54665;51.462;6.698;2022-09-09T11:24:38;20.76;61.77
67862;DHT22;54665;51.462;6.698;2022-09-09T11:27:51;21.00;59.89
67862;DHT22;54665;51.462;6.698;2022-09-09T11:38:49;21.69;57.79
67862;DHT22;54665;51.462;6.698;2022-09-09T11:41:17;21.52;59.47
67862;DHT22;54665;51.462;6.698;2022-09-09T11:43:48;21.27;59.96
67862;DHT22;54665;51.462;6.698;2022-09-09T11:46:18;21.21;59.77
67862;DHT22;54665;51.462;6.698;2022-09-09T11:48:46;21.18;59.86
67862;DHT22;54665;51.462;6.698;2022-09-09T11:51:27;20.98;60.46
67862;DHT22;54665;51.462;6.698;2022-09-09T11:56:27;20.90;59.56
67862;DHT22;54665;51.462;6.698;2022-09-09T11:59:00;21.14;59.25
67862;DHT22;54665;51.462;6.698;2022-09-09T12:01:36;21.75;58.95
67862;DHT22;54665;51.462;6.698;2022-09-09T12:06:44;21.46;57.57
67862;DHT22;54665;51.462;6.698;2022-09-09T12:09:28;21.25;59.08
67862;DHT22;54665;51.462;6.698;2022-09-09T12:12:07;21.10;60.33
67862;DHT22;54665;51.462;6.698;2022-09-09T12:17:46;20.91;60.59
67862;DHT22;54665;51.462;6.698;2022-09-09T12:20:23;20.93;60.83
67862;DHT22;54665;51.462;6.698;2022-09-09T12:25:58;21.71;59.65
67862;DHT22;54665;51.462;6.698;2022-09-09T12:29:12;21.24;59.02
67862;DHT22;54665;51.462;6.698;2022-09-09T12:31:56;20.91;67.17
67862;DHT22;54665;51.462;6.698;2022-09-09T12:37:11;20.32;68.52
67862;DHT22;54665;51.462;6.698;2022-09-09T12:39:45;20.04;66.81
67862;DHT22;54665;51.462;6.698;2022-09-09T12:42:17;19.81;68.84
67862;DHT22;54665;51.462;6.698;2022-09-09T12:50:01;19.65;74.99
67862;DHT22;54665;51.462;6.698;2022-09-09T12:52:29;19.88;75.05
67862;DHT22;54665;51.462;6.698;2022-09-09T12:54:56;19.65;75.04
67862;DHT22;54665;51.462;6.698;2022-09-09T12:57:24;19.54;75.85
67862;DHT22;54665;51.462;6.698;2022-09-09T12:59:51;19.19;74.74
67862;DHT22;54665;51.462;6.698;2022-09-09T13:02:22;18.85;75.72
67862;DHT22;54665;51.462;6.698;2022-09-09T13:04:48;18.82;76.89
67862;DHT22;54665;51.462;6.698;2022-09-09T13:07:16;19.23;77.52
67862;DHT22;54665;51.462;6.698;2022-09-09T13:09:42;19.77;78.64
67862;DHT22;54665;51.462;6.698;2022-09-09T13:12:19;20.19;74.80
67862;DHT22;54665;51.462;6.698;2022-09-09T13:14:47;20.46;74.99
67862;DHT22;54665;51.462;6.698;2022-09-09T13:17:20;20.74;72.26
67862;DHT22;54665;51.462;6.698;2022-09-09T13:19:47;20.64;71.91
67862;DHT22;54665;51.462;6.698;2022-09-09T13:22:14;20.83;71.29
67862;DHT22;54665;51.462;6.698;2022-09-09T13:24:44;21.28;70.39
67862;DHT22;54665;51.462;6.698;2022-09-09T13:27:28;21.63;69.18
67862;DHT22;54665;51.462;6.698;2022-09-09T13:29:54;21.85;68.45
67862;DHT22;54665;51.462;6.698;2022-09-09T13:32:21;22.45;67.61
67862;DHT22;54665;51.462;6.698;2022-09-09T13:34:58;22.74;64.43
67862;DHT22;54665;51.462;6.698;2022-09-09T13:37:35;22.25;65.81
67862;DHT22;54665;51.462;6.698;2022-09-09T13:40:03;21.90;64.09
67862;DHT22;54665;51.462;6.698;2022-09-09T13:42:32;21.58;65.46
67862;DHT22;54665;51.462;6.698;2022-09-09T13:45:01;21.79;63.69
67862;DHT22;54665;51.462;6.698;2022-09-09T13:47:35;21.92;63.60
67862;DHT22;54665;51.462;6.698;2022-09-09T13:52:47;21.35;63.38
67862;DHT22;54665;51.462;6.698;2022-09-09T13:55:14;21.71;64.40
67862;DHT22;54665;51.462;6.698;2022-09-09T13:57:50;21.78;62.27
67862;DHT22;54665;51.462;6.698;2022-09-09T14:00:16;22.00;63.23
67862;DHT22;54665;51.462;6.698;2022-09-09T14:02:41;21.78;61.79
67862;DHT22;54665;51.462;6.698;2022-09-09T14:05:06;21.79;63.58
67862;DHT22;54665;51.462;6.698;2022-09-09T14:07:32;21.81;62.87
67862;DHT22;54665;51.462;6.698;2022-09-09T14:09:57;21.72;62.81
67862;DHT22;54665;51.462;6.698;2022-09-09T14:12:24;21.41;63.22
67862;DHT22;54665;51.462;6.698;2022-09-09T14:14:49;20.91;63.99
67862;DHT22;54665;51.462;6.698;2022-09-09T14:17:15;20.81;65.56
67862;DHT22;54665;51.462;6.698;2022-09-09T14:19:41;20.79;64.92
67862;DHT22;54665;51.462;6.698;2022-09-09T14:22:07;20.73;66.02
67862;DHT22;54665;51.462;6.698;2022-09-09T14:24:33;20.85;66.28
67862;DHT22;54665;51.462;6.698;2022-09-09T14:26:59;20.44;65.46
67862;DHT22;54665;51.462;6.698;2022-09-09T14:29:24;19.98;67.83
67862;DHT22;54665;51.462;6.698;2022-09-09T14:31:51;19.64;68.56
67862;DHT22;54665;51.462;6.698;2022-09-09T14:34:17;19.21;69.73
67862;DHT22;54665;51.462;6.698;2022-09-09T14:36:43;18.22;73.02
67862;DHT22;54665;51.462;6.698;2022-09-09T14:39:13;17.73;74.88
67862;DHT22;54665;51.462;6.698;2022-09-09T14:41:39;17.20;76.12
67862;DHT22;54665;51.462;6.698;2022-09-09T14:44:04;16.84;78.67
67862;DHT22;54665;51.462;6.698;2022-09-09T14:46:30;16.48;80.17
67862;DHT22;54665;51.462;6.698;2022-09-09T14:48:58;16.21;82.13
67862;DHT22;54665;51.462;6.698;2022-09-09T14:51:25;16.05;84.35
67862;DHT22;54665;51.462;6.698;2022-09-09T14:53:57;15.87;84.26
67862;DHT22;54665;51.462;6.698;2022-09-09T14:56:26;15.79;85.60
67862;DHT22;54665;51.462;6.698;2022-09-09T14:58:55;15.75;85.27
67862;DHT22;54665;51.462;6.698;2022-09-09T15:01:22;15.78;86.25
67862;DHT22;54665;51.462;6.698;2022-09-09T15:03:55;15.83;86.97
67862;DHT22;54665;51.462;6.698;2022-09-09T15:06:23;15.87;87.14
67862;DHT22;54665;51.462;6.698;2022-09-09T15:08:50;15.85;87.43
67862;DHT22;54665;51.462;6.698;2022-09-09T15:11:16;15.83;88.00
67862;DHT22;54665;51.462;6.698;2022-09-09T15:13:42;15.75;88.16
67862;DHT22;54665;51.462;6.698;2022-09-09T15:16:13;15.73;88.84
67862;DHT22;54665;51.462;6.698;2022-09-09T15:18:39;15.78;88.98
67862;DHT22;54665;51.462;6.698;2022-09-09T15:21:19;15.89;89.32
67862;DHT22;54665;51.462;6.698;2022-09-09T15:23:45;16.14;89.51
67862;DHT22;54665;51.462;6.698;2022-09-09T15:26:12;16.50;89.60
67862;DHT22;54665;51.462;6.698;2022-09-09T15:28:41;16.92;89.24
67862;DHT22;54665;51.462;6.698;2022-09-09T15:31:11;17.83;88.01
67862;DHT22;54665;51.462;6.698;2022-09-09T15:33:38;18.56;85.98
67862;DHT22;54665;51.462;6.698;2022-09-09T15:36:18;19.46;82.47
67862;DHT22;54665;51.462;6.698;2022-09-09T15:38:43;20.08;78.98
67862;DHT22;54665;51.462;6.698;2022-09-09T15:41:10;20.39;77.29
67862;DHT22;54665;51.462;6.698;2022-09-09T15:43:36;20.29;77.86
67862;DHT22;54665;51.462;6.698;2022-09-09T15:48:43;19.53;77.14
67862;DHT22;54665;51.462;6.698;2022-09-09T15:51:14;19.55;78.08
67862;DHT22;54665;51.462;6.698;2022-09-09T15:53:39;19.70;79.16
67862;DHT22;54665;51.462;6.698;2022-09-09T15:56:05;19.71;79.44
67862;DHT22;54665;51.462;6.698;2022-09-09T15:58:32;19.61;77.60
67862;DHT22;54665;51.462;6.698;2022-09-09T16:01:03;19.44;79.15
67862;DHT22;54665;51.462;6.698;2022-09-09T16:03:33;19.21;78.73
67862;DHT22;54665;51.462;6.698;2022-09-09T16:05:59;19.04;79.81
67862;DHT22;54665;51.462;6.698;2022-09-09T16:08:30;18.82;80.24
67862;DHT22;54665;51.462;6.698;2022-09-09T16:10:56;18.62;81.34
67862;DHT22;54665;51.462;6.698;2022-09-09T16:13:21;18.41;81.29
67862;DHT22;54665;51.462;6.698;2022-09-09T16:15:54;18.19;81.88
67862;DHT22;54665;51.462;6.698;2022-09-09T16:18:19;18.04;81.25
67862;DHT22;54665;51.462;6.698;2022-09-09T16:20:53;17.91;82.45
67862;DHT22;54665;51.462;6.698;2022-09-09T16:23:19;17.77;81.96
67862;DHT22;54665;51.462;6.698;2022-09-09T16:25:53;17.69;82.45
67862;DHT22;54665;51.462;6.698;2022-09-09T16:28:18;17.57;83.04
67862;DHT22;54665;51.462;6.698;2022-09-09T16:30:44;17.50;83.66
67862;DHT22;54665;51.462;6.698;2022-09-09T16:33:10;17.42;83.35
67862;DHT22;54665;51.462;6.698;2022-09-09T16:35:38;17.39;83.83
67862;DHT22;54665;51.462;6.698;2022-09-09T16:38:03;17.36;83.75
67862;DHT22;54665;51.462;6.698;2022-09-09T16:40:29;17.39;84.50
67862;DHT22;54665;51.462;6.698;2022-09-09T16:42:55;17.39;84.64
67862;DHT22;54665;51.462;6.698;2022-09-09T16:45:20;17.33;84.90
67862;DHT22;54665;51.462;6.698;2022-09-09T16:47:47;17.32;84.93
67862;DHT22;54665;51.462;6.698;2022-09-09T16:50:14;17.29;84.91
67862;DHT22;54665;51.462;6.698;2022-09-09T16:52:39;17.26;85.02
67862;DHT22;54665;51.462;6.698;2022-09-09T16:55:05;17.26;85.34
67862;DHT22;54665;51.462;6.698;2022-09-09T16:57:30;17.27;85.35
67862;DHT22;54665;51.462;6.698;2022-09-09T16:59:56;17.29;85.93
67862;DHT22;54665;51.462;6.698;2022-09-09T17:02:25;17.30;86.15
67862;DHT22;54665;51.462;6.698;2022-09-09T17:04:50;17.27;85.85
67862;DHT22;54665;51.462;6.698;2022-09-09T17:07:16;17.22;85.44
67862;DHT22;54665;51.462;6.698;2022-09-09T17:09:41;17.23;85.17
67862;DHT22;54665;51.462;6.698;2022-09-09T17:12:07;17.26;85.51
67862;DHT22;54665;51.462;6.698;2022-09-09T17:14:33;17.23;85.08
67862;DHT22;54665;51.462;6.698;2022-09-09T17:16:59;17.20;85.12
67862;DHT22;54665;51.462;6.698;2022-09-09T17:19:25;17.19;85.25
67862;DHT22;54665;51.462;6.698;2022-09-09T17:21:51;17.14;85.62
67862;DHT22;54665;51.462;6.698;2022-09-09T17:24:17;17.06;85.29
67862;DHT22;54665;51.462;6.698;2022-09-09T17:26:43;17.05;85.14
67862;DHT22;54665;51.462;6.698;2022-09-09T17:29:11;17.02;85.52
67862;DHT22;54665;51.462;6.698;2022-09-09T17:31:37;16.94;85.92
67862;DHT22;54665;51.462;6.698;2022-09-09T17:34:03;16.91;86.15
67862;DHT22;54665;51.462;6.698;2022-09-09T17:36:34;16.87;86.54
67862;DHT22;54665;51.462;6.698;2022-09-09T17:39:01;16.78;86.34
67862;DHT22;54665;51.462;6.698;2022-09-09T17:41:29;16.77;86.52
67862;DHT22;54665;51.462;6.698;2022-09-09T17:43:55;16.78;86.29
67862;DHT22;54665;51.462;6.698;2022-09-09T17:48:56;16.82;87.08